Soloflygninger

i0000011 1

23113322_1490371274380231_2044961536_o

23112985_1490371271046898_1954502137_o

AD492CBE-7F7E-45F3-BB5D-BDB4D24C8D00

37537838_1435646143241462_673763438257766400_n

 
METAR
2018/09/23 23:50 ENCN 232350Z AUTO 34006KT 290V020 9999 NCD 08/M01 Q1012
TAF
2018/09/23 18:36 TAF TAF ENCN 231700Z 2318/2321 32012KT CAVOK
LN-KFK
Operativ VFR-natt
VFR dag
06:36 - 20:02
Brannvakt
Inaktiv
Banner
Banner
Banner
Banner
Banner